sensor_id;sensor_type;location;lat;lon;timestamp;P1;durP1;ratioP1;P2;durP2;ratioP2
21979;SDS011;11154;48.558;9.234;2022-11-02T00:00:00;5.63;;;3.40;;
21979;SDS011;11154;48.558;9.234;2022-11-02T00:02:01;3.95;;;2.95;;
21979;SDS011;11154;48.558;9.234;2022-11-02T00:04:04;4.28;;;3.00;;
21979;SDS011;11154;48.558;9.234;2022-11-02T00:06:06;3.25;;;2.78;;
21979;SDS011;11154;48.558;9.234;2022-11-02T00:08:07;3.85;;;2.85;;
21979;SDS011;11154;48.558;9.234;2022-11-02T00:10:09;3.58;;;2.90;;
21979;SDS011;11154;48.558;9.234;2022-11-02T00:12:11;6.93;;;3.60;;
21979;SDS011;11154;48.558;9.234;2022-11-02T00:14:13;4.80;;;3.25;;
21979;SDS011;11154;48.558;9.234;2022-11-02T00:16:14;3.88;;;2.95;;
21979;SDS011;11154;48.558;9.234;2022-11-02T00:18:19;3.35;;;3.05;;
21979;SDS011;11154;48.558;9.234;2022-11-02T00:20:22;4.72;;;3.58;;
21979;SDS011;11154;48.558;9.234;2022-11-02T00:22:25;5.60;;;3.20;;
21979;SDS011;11154;48.558;9.234;2022-11-02T00:24:27;5.28;;;2.72;;
21979;SDS011;11154;48.558;9.234;2022-11-02T00:26:30;4.00;;;2.85;;
21979;SDS011;11154;48.558;9.234;2022-11-02T00:28:34;4.15;;;3.13;;
21979;SDS011;11154;48.558;9.234;2022-11-02T00:30:36;4.32;;;3.20;;
21979;SDS011;11154;48.558;9.234;2022-11-02T00:32:38;5.22;;;3.42;;
21979;SDS011;11154;48.558;9.234;2022-11-02T00:34:40;5.75;;;3.60;;
21979;SDS011;11154;48.558;9.234;2022-11-02T00:36:43;4.07;;;3.10;;
21979;SDS011;11154;48.558;9.234;2022-11-02T00:38:45;4.47;;;3.00;;
21979;SDS011;11154;48.558;9.234;2022-11-02T00:40:46;4.95;;;3.42;;
21979;SDS011;11154;48.558;9.234;2022-11-02T00:42:48;6.35;;;3.20;;
21979;SDS011;11154;48.558;9.234;2022-11-02T00:44:51;6.35;;;3.55;;
21979;SDS011;11154;48.558;9.234;2022-11-02T00:46:52;5.07;;;4.45;;
21979;SDS011;11154;48.558;9.234;2022-11-02T00:48:54;11.38;;;7.20;;
21979;SDS011;11154;48.558;9.234;2022-11-02T00:50:56;5.93;;;3.88;;
21979;SDS011;11154;48.558;9.234;2022-11-02T00:52:59;6.15;;;3.40;;
21979;SDS011;11154;48.558;9.234;2022-11-02T00:55:00;3.90;;;3.00;;
21979;SDS011;11154;48.558;9.234;2022-11-02T00:57:02;5.00;;;3.28;;
21979;SDS011;11154;48.558;9.234;2022-11-02T00:59:04;7.53;;;3.00;;
21979;SDS011;11154;48.558;9.234;2022-11-02T01:01:06;4.07;;;3.08;;
21979;SDS011;11154;48.558;9.234;2022-11-02T01:03:08;4.22;;;2.88;;
21979;SDS011;11154;48.558;9.234;2022-11-02T01:05:11;4.35;;;2.92;;
21979;SDS011;11154;48.558;9.234;2022-11-02T01:07:12;4.00;;;2.95;;
21979;SDS011;11154;48.558;9.234;2022-11-02T01:09:16;3.88;;;2.95;;
21979;SDS011;11154;48.558;9.234;2022-11-02T01:11:19;4.28;;;2.83;;
21979;SDS011;11154;48.558;9.234;2022-11-02T01:13:21;5.32;;;3.20;;
21979;SDS011;11154;48.558;9.234;2022-11-02T01:15:23;5.90;;;3.05;;
21979;SDS011;11154;48.558;9.234;2022-11-02T01:17:24;4.30;;;3.20;;
21979;SDS011;11154;48.558;9.234;2022-11-02T01:19:26;6.55;;;3.63;;
21979;SDS011;11154;48.558;9.234;2022-11-02T01:21:28;4.28;;;3.20;;
21979;SDS011;11154;48.558;9.234;2022-11-02T01:23:30;3.90;;;3.30;;
21979;SDS011;11154;48.558;9.234;2022-11-02T01:25:33;5.60;;;3.20;;
21979;SDS011;11154;48.558;9.234;2022-11-02T01:27:35;3.17;;;2.80;;
21979;SDS011;11154;48.558;9.234;2022-11-02T01:29:37;4.57;;;3.13;;
21979;SDS011;11154;48.558;9.234;2022-11-02T01:31:39;3.75;;;3.03;;
21979;SDS011;11154;48.558;9.234;2022-11-02T01:33:42;4.30;;;2.95;;
21979;SDS011;11154;48.558;9.234;2022-11-02T01:35:45;5.05;;;3.40;;
21979;SDS011;11154;48.558;9.234;2022-11-02T01:37:46;5.53;;;2.97;;
21979;SDS011;11154;48.558;9.234;2022-11-02T01:39:48;7.30;;;3.38;;
21979;SDS011;11154;48.558;9.234;2022-11-02T01:41:51;4.90;;;3.40;;
21979;SDS011;11154;48.558;9.234;2022-11-02T01:43:54;4.88;;;3.40;;
21979;SDS011;11154;48.558;9.234;2022-11-02T01:45:58;3.15;;;2.83;;
21979;SDS011;11154;48.558;9.234;2022-11-02T01:48:04;6.25;;;3.20;;
21979;SDS011;11154;48.558;9.234;2022-11-02T01:50:07;6.10;;;3.55;;
21979;SDS011;11154;48.558;9.234;2022-11-02T01:52:12;4.75;;;3.17;;
21979;SDS011;11154;48.558;9.234;2022-11-02T01:54:18;4.88;;;3.20;;
21979;SDS011;11154;48.558;9.234;2022-11-02T01:56:22;4.20;;;2.90;;
21979;SDS011;11154;48.558;9.234;2022-11-02T01:58:31;4.90;;;3.03;;
21979;SDS011;11154;48.558;9.234;2022-11-02T02:00:34;3.90;;;2.83;;
21979;SDS011;11154;48.558;9.234;2022-11-02T02:02:38;4.35;;;3.30;;
21979;SDS011;11154;48.558;9.234;2022-11-02T02:04:46;4.30;;;3.17;;
21979;SDS011;11154;48.558;9.234;2022-11-02T02:06:51;4.65;;;2.95;;
21979;SDS011;11154;48.558;9.234;2022-11-02T02:08:57;3.53;;;3.00;;
21979;SDS011;11154;48.558;9.234;2022-11-02T02:13:27;4.68;;;3.28;;
21979;SDS011;11154;48.558;9.234;2022-11-02T02:15:33;5.25;;;3.10;;
21979;SDS011;11154;48.558;9.234;2022-11-02T02:17:42;4.22;;;3.10;;
21979;SDS011;11154;48.558;9.234;2022-11-02T02:19:51;3.80;;;3.03;;
21979;SDS011;11154;48.558;9.234;2022-11-02T02:22:03;3.55;;;2.92;;
21979;SDS011;11154;48.558;9.234;2022-11-02T02:24:29;4.78;;;3.10;;
21979;SDS011;11154;48.558;9.234;2022-11-02T02:26:54;5.70;;;3.45;;
21979;SDS011;11154;48.558;9.234;2022-11-02T02:29:06;7.13;;;3.28;;
21979;SDS011;11154;48.558;9.234;2022-11-02T02:31:15;3.92;;;3.03;;
21979;SDS011;11154;48.558;9.234;2022-11-02T02:33:24;4.13;;;3.08;;
21979;SDS011;11154;48.558;9.234;2022-11-02T02:35:32;4.00;;;3.05;;
21979;SDS011;11154;48.558;9.234;2022-11-02T02:37:40;3.83;;;2.97;;
21979;SDS011;11154;48.558;9.234;2022-11-02T02:39:49;4.95;;;3.08;;
21979;SDS011;11154;48.558;9.234;2022-11-02T02:41:56;4.78;;;3.20;;
21979;SDS011;11154;48.558;9.234;2022-11-02T02:44:01;4.93;;;3.20;;
21979;SDS011;11154;48.558;9.234;2022-11-02T02:46:07;4.53;;;3.10;;
21979;SDS011;11154;48.558;9.234;2022-11-02T02:48:11;3.63;;;2.92;;
21979;SDS011;11154;48.558;9.234;2022-11-02T02:50:17;4.72;;;2.97;;
21979;SDS011;11154;48.558;9.234;2022-11-02T02:52:25;4.22;;;3.13;;
21979;SDS011;11154;48.558;9.234;2022-11-02T02:54:29;5.40;;;2.85;;
21979;SDS011;11154;48.558;9.234;2022-11-02T02:56:36;3.65;;;2.88;;
21979;SDS011;11154;48.558;9.234;2022-11-02T02:58:42;5.43;;;3.30;;
21979;SDS011;11154;48.558;9.234;2022-11-02T03:00:45;4.05;;;3.42;;
21979;SDS011;11154;48.558;9.234;2022-11-02T03:02:48;4.55;;;3.40;;
21979;SDS011;11154;48.558;9.234;2022-11-02T03:05:00;3.28;;;2.53;;
21979;SDS011;11154;48.558;9.234;2022-11-02T03:07:02;4.97;;;2.85;;
21979;SDS011;11154;48.558;9.234;2022-11-02T03:09:05;6.03;;;2.60;;
21979;SDS011;11154;48.558;9.234;2022-11-02T03:11:11;4.80;;;2.72;;
21979;SDS011;11154;48.558;9.234;2022-11-02T03:13:22;3.67;;;2.88;;
21979;SDS011;11154;48.558;9.234;2022-11-02T03:15:36;5.13;;;2.88;;
21979;SDS011;11154;48.558;9.234;2022-11-02T03:17:44;2.78;;;2.47;;
21979;SDS011;11154;48.558;9.234;2022-11-02T03:19:58;5.45;;;2.90;;
21979;SDS011;11154;48.558;9.234;2022-11-02T03:22:07;3.80;;;3.17;;
21979;SDS011;11154;48.558;9.234;2022-11-02T03:24:21;3.80;;;3.00;;
21979;SDS011;11154;48.558;9.234;2022-11-02T03:26:31;4.03;;;2.75;;
21979;SDS011;11154;48.558;9.234;2022-11-02T03:28:44;4.63;;;2.85;;
21979;SDS011;11154;48.558;9.234;2022-11-02T03:30:56;5.50;;;3.05;;
21979;SDS011;11154;48.558;9.234;2022-11-02T03:33:03;3.45;;;2.70;;
21979;SDS011;11154;48.558;9.234;2022-11-02T03:35:10;6.88;;;3.00;;
21979;SDS011;11154;48.558;9.234;2022-11-02T03:37:17;3.97;;;2.47;;
21979;SDS011;11154;48.558;9.234;2022-11-02T03:39:26;3.75;;;2.95;;
21979;SDS011;11154;48.558;9.234;2022-11-02T03:41:32;5.22;;;3.17;;
21979;SDS011;11154;48.558;9.234;2022-11-02T03:43:36;5.43;;;3.22;;
21979;SDS011;11154;48.558;9.234;2022-11-02T03:45:41;4.72;;;3.00;;
21979;SDS011;11154;48.558;9.234;2022-11-02T03:47:47;4.32;;;3.30;;
21979;SDS011;11154;48.558;9.234;2022-11-02T03:49:52;3.78;;;3.00;;
21979;SDS011;11154;48.558;9.234;2022-11-02T03:51:59;4.72;;;3.20;;
21979;SDS011;11154;48.558;9.234;2022-11-02T03:54:06;4.13;;;3.25;;
21979;SDS011;11154;48.558;9.234;2022-11-02T03:56:11;4.82;;;3.10;;
21979;SDS011;11154;48.558;9.234;2022-11-02T03:58:20;2.92;;;2.45;;
21979;SDS011;11154;48.558;9.234;2022-11-02T04:00:23;4.28;;;2.72;;
21979;SDS011;11154;48.558;9.234;2022-11-02T04:02:26;3.22;;;2.47;;
21979;SDS011;11154;48.558;9.234;2022-11-02T04:04:28;4.88;;;2.40;;
21979;SDS011;11154;48.558;9.234;2022-11-02T04:06:29;5.05;;;2.28;;
21979;SDS011;11154;48.558;9.234;2022-11-02T04:08:34;7.35;;;2.17;;
21979;SDS011;11154;48.558;9.234;2022-11-02T04:10:38;5.10;;;2.53;;
21979;SDS011;11154;48.558;9.234;2022-11-02T04:12:59;3.90;;;2.28;;
21979;SDS011;11154;48.558;9.234;2022-11-02T04:15:18;5.25;;;2.33;;
21979;SDS011;11154;48.558;9.234;2022-11-02T04:17:18;2.42;;;2.13;;
21979;SDS011;11154;48.558;9.234;2022-11-02T04:19:46;4.75;;;2.17;;
21979;SDS011;11154;48.558;9.234;2022-11-02T04:21:48;5.13;;;2.42;;
21979;SDS011;11154;48.558;9.234;2022-11-02T04:24:07;3.67;;;2.13;;
21979;SDS011;11154;48.558;9.234;2022-11-02T04:26:26;4.07;;;2.38;;
21979;SDS011;11154;48.558;9.234;2022-11-02T04:28:28;4.40;;;2.28;;
21979;SDS011;11154;48.558;9.234;2022-11-02T04:30:29;3.47;;;2.53;;
21979;SDS011;11154;48.558;9.234;2022-11-02T04:32:35;7.63;;;2.55;;
21979;SDS011;11154;48.558;9.234;2022-11-02T04:34:55;8.95;;;2.63;;
21979;SDS011;11154;48.558;9.234;2022-11-02T04:36:58;4.10;;;2.42;;
21979;SDS011;11154;48.558;9.234;2022-11-02T04:38:59;4.40;;;2.13;;
21979;SDS011;11154;48.558;9.234;2022-11-02T04:41:01;5.40;;;2.25;;
21979;SDS011;11154;48.558;9.234;2022-11-02T04:43:20;3.63;;;1.70;;
21979;SDS011;11154;48.558;9.234;2022-11-02T04:45:22;3.75;;;2.03;;
21979;SDS011;11154;48.558;9.234;2022-11-02T04:47:24;3.28;;;1.73;;
21979;SDS011;11154;48.558;9.234;2022-11-02T04:49:25;2.90;;;2.00;;
21979;SDS011;11154;48.558;9.234;2022-11-02T04:51:28;3.15;;;1.85;;
21979;SDS011;11154;48.558;9.234;2022-11-02T04:53:30;4.25;;;2.15;;
21979;SDS011;11154;48.558;9.234;2022-11-02T04:55:32;10.73;;;2.20;;
21979;SDS011;11154;48.558;9.234;2022-11-02T04:57:36;4.28;;;1.88;;
21979;SDS011;11154;48.558;9.234;2022-11-02T04:59:37;3.22;;;1.98;;
21979;SDS011;11154;48.558;9.234;2022-11-02T05:01:39;4.40;;;1.90;;
21979;SDS011;11154;48.558;9.234;2022-11-02T05:03:40;3.65;;;1.83;;
21979;SDS011;11154;48.558;9.234;2022-11-02T05:05:42;3.90;;;1.73;;
21979;SDS011;11154;48.558;9.234;2022-11-02T05:07:44;3.83;;;1.90;;
21979;SDS011;11154;48.558;9.234;2022-11-02T05:09:46;3.72;;;1.40;;
21979;SDS011;11154;48.558;9.234;2022-11-02T05:11:47;2.80;;;1.98;;
21979;SDS011;11154;48.558;9.234;2022-11-02T05:13:50;6.28;;;2.20;;
21979;SDS011;11154;48.558;9.234;2022-11-02T05:15:54;3.85;;;1.73;;
21979;SDS011;11154;48.558;9.234;2022-11-02T05:17:56;2.15;;;1.63;;
21979;SDS011;11154;48.558;9.234;2022-11-02T05:19:57;6.03;;;2.22;;
21979;SDS011;11154;48.558;9.234;2022-11-02T05:21:59;3.55;;;1.70;;
21979;SDS011;11154;48.558;9.234;2022-11-02T05:24:01;3.47;;;1.85;;
21979;SDS011;11154;48.558;9.234;2022-11-02T05:26:04;6.82;;;2.20;;
21979;SDS011;11154;48.558;9.234;2022-11-02T05:28:07;4.45;;;1.98;;
21979;SDS011;11154;48.558;9.234;2022-11-02T05:30:10;4.45;;;2.35;;
21979;SDS011;11154;48.558;9.234;2022-11-02T05:32:13;5.82;;;3.00;;
21979;SDS011;11154;48.558;9.234;2022-11-02T05:34:15;4.80;;;2.45;;
21979;SDS011;11154;48.558;9.234;2022-11-02T05:36:16;5.63;;;2.80;;
21979;SDS011;11154;48.558;9.234;2022-11-02T05:38:18;4.20;;;2.10;;
21979;SDS011;11154;48.558;9.234;2022-11-02T05:40:19;4.22;;;2.10;;
21979;SDS011;11154;48.558;9.234;2022-11-02T05:42:21;3.10;;;2.13;;
21979;SDS011;11154;48.558;9.234;2022-11-02T05:44:22;5.45;;;1.95;;
21979;SDS011;11154;48.558;9.234;2022-11-02T05:46:25;4.05;;;2.20;;
21979;SDS011;11154;48.558;9.234;2022-11-02T05:48:29;6.82;;;2.10;;
21979;SDS011;11154;48.558;9.234;2022-11-02T05:50:32;4.03;;;2.20;;
21979;SDS011;11154;48.558;9.234;2022-11-02T05:52:34;3.25;;;2.00;;
21979;SDS011;11154;48.558;9.234;2022-11-02T05:54:35;4.45;;;1.98;;
21979;SDS011;11154;48.558;9.234;2022-11-02T05:56:37;4.68;;;2.00;;
21979;SDS011;11154;48.558;9.234;2022-11-02T05:58:39;7.68;;;3.20;;
21979;SDS011;11154;48.558;9.234;2022-11-02T06:00:42;2.88;;;2.13;;
21979;SDS011;11154;48.558;9.234;2022-11-02T06:02:46;2.00;;;1.80;;
21979;SDS011;11154;48.558;9.234;2022-11-02T06:04:47;5.68;;;2.10;;
21979;SDS011;11154;48.558;9.234;2022-11-02T06:06:49;3.60;;;2.10;;
21979;SDS011;11154;48.558;9.234;2022-11-02T06:08:51;5.95;;;2.17;;
21979;SDS011;11154;48.558;9.234;2022-11-02T06:10:52;3.58;;;2.60;;
21979;SDS011;11154;48.558;9.234;2022-11-02T06:12:54;4.65;;;2.42;;
21979;SDS011;11154;48.558;9.234;2022-11-02T06:14:57;4.90;;;2.53;;
21979;SDS011;11154;48.558;9.234;2022-11-02T06:16:58;5.93;;;2.33;;
21979;SDS011;11154;48.558;9.234;2022-11-02T06:19:01;4.70;;;2.50;;
21979;SDS011;11154;48.558;9.234;2022-11-02T06:21:03;5.93;;;2.50;;
21979;SDS011;11154;48.558;9.234;2022-11-02T06:23:05;3.40;;;2.00;;
21979;SDS011;11154;48.558;9.234;2022-11-02T06:25:07;3.88;;;2.38;;
21979;SDS011;11154;48.558;9.234;2022-11-02T06:27:09;6.10;;;2.67;;
21979;SDS011;11154;48.558;9.234;2022-11-02T06:29:12;3.60;;;2.10;;
21979;SDS011;11154;48.558;9.234;2022-11-02T06:31:14;2.83;;;2.00;;
21979;SDS011;11154;48.558;9.234;2022-11-02T06:33:16;4.85;;;2.33;;
21979;SDS011;11154;48.558;9.234;2022-11-02T06:35:20;3.30;;;2.03;;
21979;SDS011;11154;48.558;9.234;2022-11-02T06:37:22;5.90;;;3.00;;
21979;SDS011;11154;48.558;9.234;2022-11-02T06:39:24;7.05;;;4.35;;
21979;SDS011;11154;48.558;9.234;2022-11-02T06:41:26;6.53;;;2.80;;
21979;SDS011;11154;48.558;9.234;2022-11-02T06:43:27;3.92;;;2.60;;
21979;SDS011;11154;48.558;9.234;2022-11-02T06:45:29;5.97;;;2.50;;
21979;SDS011;11154;48.558;9.234;2022-11-02T06:47:31;2.92;;;2.08;;
21979;SDS011;11154;48.558;9.234;2022-11-02T06:49:33;6.28;;;2.22;;
21979;SDS011;11154;48.558;9.234;2022-11-02T06:51:36;4.70;;;1.80;;
21979;SDS011;11154;48.558;9.234;2022-11-02T06:53:38;4.45;;;2.42;;
21979;SDS011;11154;48.558;9.234;2022-11-02T06:55:39;4.32;;;2.53;;
21979;SDS011;11154;48.558;9.234;2022-11-02T06:57:41;4.70;;;2.33;;
21979;SDS011;11154;48.558;9.234;2022-11-02T06:59:44;6.65;;;1.90;;
21979;SDS011;11154;48.558;9.234;2022-11-02T07:01:45;4.10;;;2.30;;
21979;SDS011;11154;48.558;9.234;2022-11-02T07:03:51;3.42;;;2.22;;
21979;SDS011;11154;48.558;9.234;2022-11-02T07:05:53;6.45;;;2.13;;
21979;SDS011;11154;48.558;9.234;2022-11-02T07:07:57;4.78;;;1.83;;
21979;SDS011;11154;48.558;9.234;2022-11-02T07:09:59;3.60;;;2.17;;
21979;SDS011;11154;48.558;9.234;2022-11-02T07:12:01;4.20;;;2.25;;
21979;SDS011;11154;48.558;9.234;2022-11-02T07:14:02;7.00;;;2.72;;
21979;SDS011;11154;48.558;9.234;2022-11-02T07:16:04;3.75;;;2.20;;
21979;SDS011;11154;48.558;9.234;2022-11-02T07:18:06;7.95;;;2.20;;
21979;SDS011;11154;48.558;9.234;2022-11-02T07:20:08;3.67;;;2.10;;
21979;SDS011;11154;48.558;9.234;2022-11-02T07:22:11;5.10;;;2.30;;
21979;SDS011;11154;48.558;9.234;2022-11-02T07:24:14;3.58;;;2.15;;
21979;SDS011;11154;48.558;9.234;2022-11-02T07:26:15;2.92;;;1.90;;
21979;SDS011;11154;48.558;9.234;2022-11-02T07:28:17;3.92;;;2.10;;
21979;SDS011;11154;48.558;9.234;2022-11-02T07:30:20;3.65;;;2.35;;
21979;SDS011;11154;48.558;9.234;2022-11-02T07:32:22;3.35;;;2.30;;
21979;SDS011;11154;48.558;9.234;2022-11-02T07:34:24;5.32;;;2.55;;
21979;SDS011;11154;48.558;9.234;2022-11-02T07:36:26;3.92;;;2.28;;
21979;SDS011;11154;48.558;9.234;2022-11-02T07:38:27;4.78;;;2.35;;
21979;SDS011;11154;48.558;9.234;2022-11-02T07:40:31;5.70;;;2.13;;
21979;SDS011;11154;48.558;9.234;2022-11-02T07:42:34;4.63;;;2.42;;
21979;SDS011;11154;48.558;9.234;2022-11-02T07:44:36;5.35;;;2.35;;
21979;SDS011;11154;48.558;9.234;2022-11-02T07:46:38;3.92;;;2.30;;
21979;SDS011;11154;48.558;9.234;2022-11-02T07:48:40;5.00;;;2.30;;
21979;SDS011;11154;48.558;9.234;2022-11-02T07:50:42;5.00;;;2.20;;
21979;SDS011;11154;48.558;9.234;2022-11-02T07:52:44;3.63;;;2.40;;
21979;SDS011;11154;48.558;9.234;2022-11-02T07:54:46;6.18;;;2.45;;
21979;SDS011;11154;48.558;9.234;2022-11-02T07:56:49;3.78;;;2.05;;
21979;SDS011;11154;48.558;9.234;2022-11-02T07:58:51;5.45;;;2.30;;
21979;SDS011;11154;48.558;9.234;2022-11-02T08:00:52;3.88;;;2.10;;
21979;SDS011;11154;48.558;9.234;2022-11-02T08:02:57;3.40;;;2.22;;
21979;SDS011;11154;48.558;9.234;2022-11-02T08:05:00;5.40;;;2.03;;
21979;SDS011;11154;48.558;9.234;2022-11-02T08:07:02;7.63;;;2.35;;
21979;SDS011;11154;48.558;9.234;2022-11-02T08:09:03;5.18;;;2.47;;
21979;SDS011;11154;48.558;9.234;2022-11-02T08:11:06;5.47;;;2.47;;
21979;SDS011;11154;48.558;9.234;2022-11-02T08:13:10;6.10;;;2.65;;
21979;SDS011;11154;48.558;9.234;2022-11-02T08:15:14;5.18;;;2.28;;
21979;SDS011;11154;48.558;9.234;2022-11-02T08:17:15;4.05;;;2.30;;
21979;SDS011;11154;48.558;9.234;2022-11-02T08:19:17;4.63;;;2.13;;
21979;SDS011;11154;48.558;9.234;2022-11-02T08:21:19;3.72;;;2.25;;
21979;SDS011;11154;48.558;9.234;2022-11-02T08:23:21;4.55;;;2.92;;
21979;SDS011;11154;48.558;9.234;2022-11-02T08:25:23;4.47;;;2.30;;
21979;SDS011;11154;48.558;9.234;2022-11-02T08:27:24;5.45;;;2.20;;
21979;SDS011;11154;48.558;9.234;2022-11-02T08:29:27;7.63;;;2.35;;
21979;SDS011;11154;48.558;9.234;2022-11-02T08:31:29;4.72;;;2.38;;
21979;SDS011;11154;48.558;9.234;2022-11-02T08:33:31;4.85;;;2.20;;
21979;SDS011;11154;48.558;9.234;2022-11-02T08:35:32;7.05;;;2.25;;
21979;SDS011;11154;48.558;9.234;2022-11-02T08:37:36;3.58;;;1.85;;
21979;SDS011;11154;48.558;9.234;2022-11-02T08:39:38;4.28;;;1.80;;
21979;SDS011;11154;48.558;9.234;2022-11-02T08:41:40;4.80;;;1.63;;
21979;SDS011;11154;48.558;9.234;2022-11-02T08:43:42;8.05;;;2.30;;
21979;SDS011;11154;48.558;9.234;2022-11-02T08:45:45;5.47;;;1.75;;
21979;SDS011;11154;48.558;9.234;2022-11-02T08:47:48;6.88;;;2.10;;
21979;SDS011;11154;48.558;9.234;2022-11-02T08:49:49;4.75;;;2.30;;
21979;SDS011;11154;48.558;9.234;2022-11-02T08:51:51;6.97;;;3.10;;
21979;SDS011;11154;48.558;9.234;2022-11-02T08:53:53;5.35;;;2.15;;
21979;SDS011;11154;48.558;9.234;2022-11-02T08:55:55;4.78;;;2.30;;
21979;SDS011;11154;48.558;9.234;2022-11-02T08:57:57;6.25;;;2.42;;
21979;SDS011;11154;48.558;9.234;2022-11-02T09:00:00;5.65;;;2.28;;
21979;SDS011;11154;48.558;9.234;2022-11-02T09:02:03;8.93;;;2.33;;
21979;SDS011;11154;48.558;9.234;2022-11-02T09:04:05;6.85;;;2.05;;
21979;SDS011;11154;48.558;9.234;2022-11-02T09:06:07;7.95;;;2.70;;
21979;SDS011;11154;48.558;9.234;2022-11-02T09:08:10;7.45;;;2.72;;
21979;SDS011;11154;48.558;9.234;2022-11-02T09:10:12;14.60;;;8.18;;
21979;SDS011;11154;48.558;9.234;2022-11-02T09:12:15;8.15;;;3.50;;
21979;SDS011;11154;48.558;9.234;2022-11-02T09:14:17;7.18;;;2.75;;
21979;SDS011;11154;48.558;9.234;2022-11-02T09:16:18;5.93;;;3.15;;
21979;SDS011;11154;48.558;9.234;2022-11-02T09:18:22;7.70;;;2.80;;
21979;SDS011;11154;48.558;9.234;2022-11-02T09:20:24;6.15;;;2.30;;
21979;SDS011;11154;48.558;9.234;2022-11-02T09:22:26;6.82;;;2.00;;
21979;SDS011;11154;48.558;9.234;2022-11-02T09:24:27;3.70;;;1.88;;
21979;SDS011;11154;48.558;9.234;2022-11-02T09:26:29;5.25;;;1.85;;
21979;SDS011;11154;48.558;9.234;2022-11-02T09:28:32;6.57;;;1.60;;
21979;SDS011;11154;48.558;9.234;2022-11-02T09:30:34;7.82;;;2.10;;
21979;SDS011;11154;48.558;9.234;2022-11-02T09:32:35;4.47;;;2.03;;
21979;SDS011;11154;48.558;9.234;2022-11-02T09:34:39;6.65;;;2.35;;
21979;SDS011;11154;48.558;9.234;2022-11-02T09:36:41;6.57;;;2.22;;
21979;SDS011;11154;48.558;9.234;2022-11-02T09:38:42;8.57;;;2.30;;
21979;SDS011;11154;48.558;9.234;2022-11-02T09:40:45;7.63;;;2.17;;
21979;SDS011;11154;48.558;9.234;2022-11-02T09:42:57;6.57;;;1.90;;
21979;SDS011;11154;48.558;9.234;2022-11-02T09:45:05;7.53;;;2.20;;
21979;SDS011;11154;48.558;9.234;2022-11-02T09:47:08;5.43;;;1.83;;
21979;SDS011;11154;48.558;9.234;2022-11-02T09:49:13;4.18;;;1.55;;
21979;SDS011;11154;48.558;9.234;2022-11-02T09:51:19;6.30;;;1.77;;
21979;SDS011;11154;48.558;9.234;2022-11-02T09:53:25;7.25;;;1.80;;
21979;SDS011;11154;48.558;9.234;2022-11-02T09:55:31;3.78;;;1.35;;
21979;SDS011;11154;48.558;9.234;2022-11-02T09:57:36;7.80;;;1.85;;
21979;SDS011;11154;48.558;9.234;2022-11-02T09:59:40;7.65;;;2.03;;
21979;SDS011;11154;48.558;9.234;2022-11-02T10:01:48;5.38;;;1.65;;
21979;SDS011;11154;48.558;9.234;2022-11-02T10:03:58;5.13;;;1.52;;
21979;SDS011;11154;48.558;9.234;2022-11-02T10:06:17;6.07;;;1.48;;
21979;SDS011;11154;48.558;9.234;2022-11-02T10:08:24;3.83;;;1.55;;
21979;SDS011;11154;48.558;9.234;2022-11-02T10:10:35;8.77;;;1.77;;
21979;SDS011;11154;48.558;9.234;2022-11-02T10:12:41;6.75;;;1.52;;
21979;SDS011;11154;48.558;9.234;2022-11-02T10:14:53;5.95;;;1.80;;
21979;SDS011;11154;48.558;9.234;2022-11-02T10:17:01;4.13;;;1.33;;
21979;SDS011;11154;48.558;9.234;2022-11-02T10:19:11;5.93;;;1.63;;
21979;SDS011;11154;48.558;9.234;2022-11-02T10:21:17;6.40;;;1.40;;
21979;SDS011;11154;48.558;9.234;2022-11-02T10:23:29;4.93;;;1.35;;
21979;SDS011;11154;48.558;9.234;2022-11-02T10:25:33;4.38;;;1.30;;
21979;SDS011;11154;48.558;9.234;2022-11-02T10:27:37;8.82;;;1.60;;
21979;SDS011;11154;48.558;9.234;2022-11-02T10:29:40;5.00;;;1.52;;
21979;SDS011;11154;48.558;9.234;2022-11-02T10:31:48;10.10;;;1.90;;
21979;SDS011;11154;48.558;9.234;2022-11-02T10:33:50;3.67;;;1.45;;
21979;SDS011;11154;48.558;9.234;2022-11-02T10:36:07;6.57;;;1.42;;
21979;SDS011;11154;48.558;9.234;2022-11-02T10:38:25;3.97;;;1.48;;
21979;SDS011;11154;48.558;9.234;2022-11-02T10:40:40;4.72;;;1.90;;
21979;SDS011;11154;48.558;9.234;2022-11-02T10:43:02;6.32;;;2.20;;
21979;SDS011;11154;48.558;9.234;2022-11-02T10:45:24;4.28;;;1.80;;
21979;SDS011;11154;48.558;9.234;2022-11-02T10:47:51;6.10;;;1.70;;
21979;SDS011;11154;48.558;9.234;2022-11-02T10:50:12;4.95;;;1.60;;
21979;SDS011;11154;48.558;9.234;2022-11-02T10:52:21;3.83;;;1.25;;
21979;SDS011;11154;48.558;9.234;2022-11-02T10:54:24;6.43;;;1.42;;
21979;SDS011;11154;48.558;9.234;2022-11-02T10:56:28;5.93;;;1.80;;
21979;SDS011;11154;48.558;9.234;2022-11-02T10:58:31;6.25;;;1.67;;
21979;SDS011;11154;48.558;9.234;2022-11-02T11:00:35;5.22;;;1.50;;
21979;SDS011;11154;48.558;9.234;2022-11-02T11:02:38;3.75;;;1.27;;
21979;SDS011;11154;48.558;9.234;2022-11-02T11:04:40;7.43;;;1.58;;
21979;SDS011;11154;48.558;9.234;2022-11-02T11:06:42;4.70;;;1.40;;
21979;SDS011;11154;48.558;9.234;2022-11-02T11:08:44;3.53;;;1.27;;
21979;SDS011;11154;48.558;9.234;2022-11-02T11:10:50;6.82;;;1.45;;
21979;SDS011;11154;48.558;9.234;2022-11-02T11:12:52;6.28;;;1.80;;
21979;SDS011;11154;48.558;9.234;2022-11-02T11:14:56;7.38;;;1.50;;
21979;SDS011;11154;48.558;9.234;2022-11-02T11:17:00;5.25;;;1.40;;
21979;SDS011;11154;48.558;9.234;2022-11-02T11:19:04;6.28;;;1.33;;
21979;SDS011;11154;48.558;9.234;2022-11-02T11:21:07;6.13;;;1.48;;
21979;SDS011;11154;48.558;9.234;2022-11-02T11:23:15;6.15;;;1.30;;
21979;SDS011;11154;48.558;9.234;2022-11-02T11:25:20;6.30;;;1.30;;
21979;SDS011;11154;48.558;9.234;2022-11-02T11:27:26;6.80;;;1.35;;
21979;SDS011;11154;48.558;9.234;2022-11-02T11:29:28;4.03;;;1.23;;
21979;SDS011;11154;48.558;9.234;2022-11-02T11:31:32;5.20;;;1.42;;
21979;SDS011;11154;48.558;9.234;2022-11-02T11:33:40;4.32;;;1.10;;
21979;SDS011;11154;48.558;9.234;2022-11-02T11:37:49;5.63;;;1.20;;
21979;SDS011;11154;48.558;9.234;2022-11-02T11:39:55;4.05;;;1.33;;
21979;SDS011;11154;48.558;9.234;2022-11-02T11:42:00;5.38;;;1.30;;
21979;SDS011;11154;48.558;9.234;2022-11-02T11:44:06;4.55;;;1.45;;
21979;SDS011;11154;48.558;9.234;2022-11-02T11:46:13;6.55;;;1.55;;
21979;SDS011;11154;48.558;9.234;2022-11-02T11:48:19;6.25;;;1.50;;
21979;SDS011;11154;48.558;9.234;2022-11-02T11:50:29;6.90;;;1.13;;
21979;SDS011;11154;48.558;9.234;2022-11-02T11:52:31;5.68;;;1.38;;
21979;SDS011;11154;48.558;9.234;2022-11-02T11:54:34;5.95;;;1.55;;
21979;SDS011;11154;48.558;9.234;2022-11-02T11:56:38;5.38;;;1.45;;
21979;SDS011;11154;48.558;9.234;2022-11-02T11:58:40;3.72;;;1.17;;
21979;SDS011;11154;48.558;9.234;2022-11-02T12:01:02;7.03;;;1.92;;
21979;SDS011;11154;48.558;9.234;2022-11-02T12:03:07;5.38;;;1.48;;
21979;SDS011;11154;48.558;9.234;2022-11-02T12:05:11;8.60;;;1.55;;
21979;SDS011;11154;48.558;9.234;2022-11-02T12:07:21;6.63;;;1.50;;
21979;SDS011;11154;48.558;9.234;2022-11-02T12:10:01;6.07;;;1.30;;
21979;SDS011;11154;48.558;9.234;2022-11-02T12:12:10;4.97;;;1.42;;
21979;SDS011;11154;48.558;9.234;2022-11-02T12:14:27;5.32;;;1.30;;
21979;SDS011;11154;48.558;9.234;2022-11-02T12:16:44;5.38;;;1.50;;
21979;SDS011;11154;48.558;9.234;2022-11-02T12:19:05;4.38;;;1.20;;
21979;SDS011;11154;48.558;9.234;2022-11-02T12:21:20;4.65;;;1.00;;
21979;SDS011;11154;48.558;9.234;2022-11-02T12:23:44;4.55;;;1.30;;
21979;SDS011;11154;48.558;9.234;2022-11-02T12:26:05;6.47;;;1.70;;
21979;SDS011;11154;48.558;9.234;2022-11-02T12:28:19;5.35;;;1.48;;
21979;SDS011;11154;48.558;9.234;2022-11-02T12:30:29;5.20;;;1.27;;
21979;SDS011;11154;48.558;9.234;2022-11-02T12:32:45;5.22;;;1.40;;
21979;SDS011;11154;48.558;9.234;2022-11-02T12:35:00;6.45;;;1.45;;
21979;SDS011;11154;48.558;9.234;2022-11-02T12:37:18;4.85;;;1.20;;